Time;durP1;ratioP1;P1;durP2;ratioP2;P2;SDS_P1;SDS_P2;PMS_P1;PMS_P2;Temp;Humidity;BMP_temperature;BMP_pressure;BME280_temperature;BME280_humidity;BME280_pressure;Samples;Min_cycle;Max_cycle;Signal;HPM_P1;HPM_P2
2021/08/26 00:00:34;;;;;;;1.37;0.90;;;;;;;15.45;100.00;100349.91;5054217;28;20807;-68
2021/08/26 00:05:47;;;;;;;0.80;0.80;;;;;;;15.41;100.00;100341.63;5054321;28;20434;-68
2021/08/26 00:08:16;;;;;;;2.50;1.93;;;;;;;15.42;100.00;100350.59;5053608;28;20481;-71
2021/08/26 00:10:44;;;;;;;1.63;1.10;;;;;;;15.39;100.00;100347.41;5061685;28;20438;-68
2021/08/26 00:13:11;;;;;;;2.37;0.90;;;;;;;15.41;100.00;100344.34;5073709;28;20477;-67
2021/08/26 00:15:40;;;;;;;3.03;2.03;;;;;;;15.45;100.00;100344.44;5074161;28;20512;-69
2021/08/26 00:18:07;;;;;;;2.00;1.47;;;;;;;15.43;100.00;100338.53;5073932;28;20469;-68
2021/08/26 00:20:33;;;;;;;2.00;1.00;;;;;;;15.38;100.00;100337.63;5068768;28;20445;-68
2021/08/26 00:23:00;;;;;;;1.50;1.13;;;;;;;15.34;100.00;100344.09;5072703;28;20487;-70
2021/08/26 00:25:28;;;;;;;1.23;0.80;;;;;;;15.37;100.00;100337.97;5072720;28;20452;-68
2021/08/26 00:27:55;;;;;;;0.93;0.70;;;;;;;15.43;100.00;100335.81;5073671;28;20448;-69
2021/08/26 00:30:21;;;;;;;2.00;1.40;;;;;;;15.42;100.00;100335.00;5072300;28;20445;-69
2021/08/26 00:32:48;;;;;;;2.47;1.20;;;;;;;15.45;100.00;100337.06;5062054;28;20512;-70
2021/08/26 00:35:14;;;;;;;1.23;0.80;;;;;;;15.41;100.00;100332.63;5053803;28;20485;-69
2021/08/26 00:37:41;;;;;;;1.43;1.07;;;;;;;15.41;100.00;100327.19;5053503;28;20823;-71
2021/08/26 00:40:08;;;;;;;1.80;0.97;;;;;;;15.39;100.00;100325.56;5058247;28;20438;-68
2021/08/26 00:42:37;;;;;;;1.80;1.13;;;;;;;15.39;100.00;100324.78;5073705;28;20799;-68
2021/08/26 00:45:04;;;;;;;1.70;1.10;;;;;;;15.39;100.00;100314.66;5073218;28;20968;-69
2021/08/26 00:47:31;;;;;;;0.83;0.70;;;;;;;15.37;100.00;100318.88;5073414;28;21004;-68
2021/08/26 00:49:58;;;;;;;1.07;0.80;;;;;;;15.39;100.00;100311.91;5072162;28;20460;-69
2021/08/26 00:52:25;;;;;;;1.50;1.07;;;;;;;15.41;100.00;100310.81;5066194;28;20831;-68
2021/08/26 00:54:51;;;;;;;3.70;2.13;;;;;;;15.36;100.00;100298.16;5053469;28;20508;-67
2021/08/26 00:57:18;;;;;;;2.07;1.53;;;;;;;15.34;100.00;100294.97;5053526;28;20449;-68
2021/08/26 00:59:46;;;;;;;3.07;1.13;;;;;;;15.37;100.00;100295.09;5054847;28;20460;-69
2021/08/26 01:02:22;;;;;;;2.00;1.40;;;;;;;15.35;100.00;100296.56;5072365;28;21013;-68
2021/08/26 01:04:51;;;;;;;1.90;1.50;;;;;;;15.32;100.00;100300.78;5069439;28;20443;-69
2021/08/26 01:07:25;;;;;;;1.00;0.90;;;;;;;15.30;100.00;100299.53;5061177;28;20446;-68
2021/08/26 01:09:58;;;;;;;1.73;1.10;;;;;;;15.30;100.00;100297.59;5052451;28;20479;-69
2021/08/26 01:12:27;;;;;;;4.00;0.90;;;;;;;15.32;100.00;100294.53;5053056;28;20552;-68
2021/08/26 01:14:56;;;;;;;1.70;0.83;;;;;;;15.32;100.00;100292.59;5053220;28;20482;-68
2021/08/26 01:17:24;;;;;;;4.63;1.50;;;;;;;15.31;100.00;100295.66;5063388;28;20492;-68
2021/08/26 01:19:51;;;;;;;2.80;1.03;;;;;;;15.29;100.00;100293.25;5072036;28;20958;-69
2021/08/26 01:22:18;;;;;;;1.80;0.90;;;;;;;15.27;100.00;100284.63;5073205;28;20465;-69
2021/08/26 01:24:50;;;;;;;2.30;1.37;;;;;;;15.18;100.00;100289.38;5071412;28;20453;-71
2021/08/26 01:27:18;;;;;;;1.80;1.10;;;;;;;15.19;100.00;100287.47;5073287;28;20433;-69
2021/08/26 01:29:47;;;;;;;7.87;1.43;;;;;;;15.20;100.00;100289.84;5072013;28;20445;-69
2021/08/26 01:32:17;;;;;;;5.77;1.20;;;;;;;15.20;100.00;100283.59;5057783;28;20466;-70
2021/08/26 01:34:44;;;;;;;2.10;1.37;;;;;;;15.19;100.00;100288.25;5072983;28;20441;-68
2021/08/26 01:37:10;;;;;;;2.53;1.03;;;;;;;15.22;100.00;100286.78;5073135;28;20449;-68
2021/08/26 01:39:44;;;;;;;3.73;1.97;;;;;;;15.21;100.00;100285.19;5071646;28;20457;-70
2021/08/26 01:42:11;;;;;;;3.60;1.70;;;;;;;15.20;100.00;100280.88;5072782;28;20468;-68
2021/08/26 01:44:38;;;;;;;2.83;0.90;;;;;;;15.16;100.00;100283.47;5071811;28;20440;-69
2021/08/26 01:47:06;;;;;;;2.67;1.10;;;;;;;15.14;100.00;100292.00;5072702;28;20468;-68
2021/08/26 01:49:33;;;;;;;6.50;1.97;;;;;;;15.12;100.00;100285.28;5072929;28;20453;-70
2021/08/26 01:51:59;;;;;;;2.20;1.30;;;;;;;15.09;100.00;100288.69;5072089;28;20462;-70
2021/08/26 01:54:26;;;;;;;2.20;1.60;;;;;;;15.10;100.00;100284.84;5072357;28;20441;-70
2021/08/26 01:56:52;;;;;;;8.47;1.40;;;;;;;15.09;100.00;100294.13;5072478;28;20485;-68
2021/08/26 01:59:19;;;;;;;1.47;1.20;;;;;;;15.08;100.00;100285.16;5066935;28;20982;-70
2021/08/26 02:01:46;;;;;;;1.30;1.13;;;;;;;15.07;100.00;100285.50;5051949;28;20455;-69
2021/08/26 02:04:13;;;;;;;2.73;1.43;;;;;;;15.00;100.00;100286.06;5052333;28;20442;-69
2021/08/26 02:06:39;;;;;;;2.97;1.50;;;;;;;14.93;100.00;100285.03;5052794;28;20454;-69
2021/08/26 02:09:06;;;;;;;1.60;1.30;;;;;;;14.94;100.00;100281.97;5051910;28;20457;-68
2021/08/26 02:11:32;;;;;;;1.63;1.50;;;;;;;14.95;100.00;100277.28;5053316;28;20445;-71
2021/08/26 02:13:59;;;;;;;2.70;1.60;;;;;;;14.92;100.00;100277.97;5060406;28;20858;-70
2021/08/26 02:16:25;;;;;;;2.10;1.43;;;;;;;14.91;100.00;100268.19;5076411;28;20503;-69
2021/08/26 02:18:53;;;;;;;5.27;1.67;;;;;;;14.93;100.00;100274.13;5075912;28;20452;-70
2021/08/26 02:21:19;;;;;;;1.30;1.20;;;;;;;14.93;100.00;100274.13;5073516;28;20449;-69
2021/08/26 02:23:47;;;;;;;2.00;1.80;;;;;;;14.85;100.00;100271.13;5072435;28;20472;-70
2021/08/26 02:26:13;;;;;;;1.50;1.40;;;;;;;14.80;100.00;100271.34;5075788;28;20969;-69
2021/08/26 02:28:40;;;;;;;7.40;2.37;;;;;;;14.80;100.00;100265.91;5066172;28;20453;-69
2021/08/26 02:31:06;;;;;;;4.30;2.30;;;;;;;14.84;100.00;100271.50;5054904;28;20828;-69
2021/08/26 02:33:32;;;;;;;8.20;1.73;;;;;;;14.86;100.00;100270.00;5060455;28;20809;-69
2021/08/26 02:36:00;;;;;;;2.53;1.77;;;;;;;14.88;100.00;100270.47;5075892;28;20477;-71
2021/08/26 02:38:27;;;;;;;2.27;1.80;;;;;;;14.85;100.00;100273.88;5067577;28;20457;-70
2021/08/26 02:40:53;;;;;;;3.43;2.17;;;;;;;14.89;100.00;100268.53;5055879;28;20919;-70
2021/08/26 02:43:20;;;;;;;1.57;1.47;;;;;;;14.89;100.00;100272.06;5057043;28;20489;-68
2021/08/26 02:45:46;;;;;;;18.20;2.50;;;;;;;14.86;100.00;100266.47;5056135;28;20446;-69
2021/08/26 02:48:13;;;;;;;3.83;1.63;;;;;;;14.81;100.00;100266.69;5056065;28;20450;-69
2021/08/26 02:50:39;;;;;;;5.67;0.93;;;;;;;14.84;100.00;100268.75;5055107;28;20473;-69
2021/08/26 02:53:07;;;;;;;7.60;1.90;;;;;;;14.85;100.00;100265.69;5071378;28;20476;-69
2021/08/26 02:55:33;;;;;;;4.13;2.27;;;;;;;14.77;100.00;100277.47;5075179;28;20481;-69
2021/08/26 02:58:00;;;;;;;4.43;1.30;;;;;;;14.79;100.00;100277.16;5068593;28;20461;-69
2021/08/26 03:00:26;;;;;;;2.07;1.83;;;;;;;14.74;100.00;100267.25;5059915;28;20452;-70
2021/08/26 03:02:53;;;;;;;3.33;1.53;;;;;;;14.75;100.00;100266.13;5075022;28;20997;-69
2021/08/26 03:05:19;;;;;;;5.53;2.57;;;;;;;14.61;100.00;100265.63;5075097;28;20441;-69
2021/08/26 03:07:46;;;;;;;1.90;1.70;;;;;;;14.61;100.00;100273.81;5070559;28;20450;-69
2021/08/26 03:10:14;;;;;;;3.20;2.10;;;;;;;14.60;100.00;100264.81;5066045;28;20449;-68
2021/08/26 03:12:40;;;;;;;2.20;1.60;;;;;;;14.60;100.00;100269.47;5073920;28;20485;-70
2021/08/26 03:15:07;;;;;;;6.83;1.67;;;;;;;14.58;100.00;100266.28;5074157;28;20452;-69
2021/08/26 03:17:34;;;;;;;3.13;1.97;;;;;;;14.58;100.00;100261.63;5072782;28;20461;-70
2021/08/26 03:20:00;;;;;;;6.80;1.73;;;;;;;14.62;100.00;100256.31;5074267;28;20792;-70
2021/08/26 03:22:27;;;;;;;3.83;2.00;;;;;;;14.64;100.00;100252.09;5073388;28;20476;-70
2021/08/26 03:24:53;;;;;;;3.30;1.60;;;;;;;14.67;100.00;100260.75;5072730;28;20438;-70
2021/08/26 03:27:21;;;;;;;4.27;1.97;;;;;;;14.67;100.00;100258.03;5074919;28;20441;-69
2021/08/26 03:29:47;;;;;;;5.63;1.27;;;;;;;14.68;100.00;100265.88;5074290;28;20514;-69
2021/08/26 03:32:14;;;;;;;6.90;2.17;;;;;;;14.68;100.00;100267.81;5073082;28;20839;-70
2021/08/26 03:34:40;;;;;;;10.63;3.43;;;;;;;14.67;100.00;100268.94;5075416;28;20822;-71
2021/08/26 03:37:07;;;;;;;3.20;1.40;;;;;;;14.69;100.00;100272.13;5074445;28;21044;-70
2021/08/26 03:39:33;;;;;;;2.70;0.83;;;;;;;14.65;100.00;100266.53;5073879;28;20442;-71
2021/08/26 03:41:59;;;;;;;8.40;1.40;;;;;;;14.60;100.00;100273.00;5068972;28;20470;-69
2021/08/26 03:44:27;;;;;;;13.30;2.77;;;;;;;14.59;100.00;100256.97;5055061;28;20450;-70
2021/08/26 03:46:54;;;;;;;5.03;1.33;;;;;;;14.63;100.00;100263.34;5069827;28;20450;-70
2021/08/26 03:49:20;;;;;;;5.60;2.70;;;;;;;14.62;100.00;100267.22;5073728;28;20445;-70
2021/08/26 03:51:47;;;;;;;5.10;2.40;;;;;;;14.67;100.00;100269.72;5070462;28;20971;-71
2021/08/26 03:54:14;;;;;;;5.83;2.20;;;;;;;14.69;100.00;100264.72;5072325;28;20468;-70
2021/08/26 03:56:40;;;;;;;3.97;3.63;;;;;;;14.67;100.00;100269.72;5074852;28;20851;-71
2021/08/26 03:59:07;;;;;;;2.40;1.63;;;;;;;14.71;100.00;100269.88;5073847;28;20499;-71
2021/08/26 04:01:34;;;;;;;7.97;2.13;;;;;;;14.71;100.00;100257.03;5070642;28;20446;-71
2021/08/26 04:04:01;;;;;;;7.40;2.20;;;;;;;14.65;100.00;100263.81;5054334;28;20450;-71
2021/08/26 04:06:28;;;;;;;3.23;2.10;;;;;;;14.66;100.00;100259.97;5054575;28;20439;-69
2021/08/26 04:08:54;;;;;;;4.50;1.80;;;;;;;14.67;100.00;100275.19;5054305;28;20821;-72
2021/08/26 04:11:21;;;;;;;4.20;1.97;;;;;;;14.65;100.00;100266.53;5053719;28;20450;-70
2021/08/26 04:13:48;;;;;;;4.17;2.30;;;;;;;14.60;100.00;100262.09;5066674;28;20488;-69
2021/08/26 04:16:14;;;;;;;4.40;1.97;;;;;;;14.60;100.00;100258.56;5071477;28;20484;-72
2021/08/26 04:18:42;;;;;;;2.10;0.93;;;;;;;14.63;100.00;100258.69;5057836;28;20443;-72
2021/08/26 04:21:09;;;;;;;6.10;1.37;;;;;;;14.71;100.00;100261.69;5069999;28;20461;-69
2021/08/26 04:23:35;;;;;;;24.23;4.47;;;;;;;14.70;100.00;100257.34;5073596;28;20466;-69
2021/08/26 04:26:02;;;;;;;10.47;2.90;;;;;;;14.69;100.00;100253.81;5073892;28;20833;-70
2021/08/26 04:28:28;;;;;;;8.43;2.83;;;;;;;14.63;100.00;100261.41;5061960;28;20448;-72
2021/08/26 04:30:55;;;;;;;3.37;1.80;;;;;;;14.59;100.00;100257.78;5052821;28;20835;-71
2021/08/26 04:33:21;;;;;;;4.40;1.63;;;;;;;14.59;100.00;100262.44;5064644;28;20476;-70
2021/08/26 04:35:49;;;;;;;2.50;1.40;;;;;;;14.54;100.00;100257.19;5073253;28;20477;-71
2021/08/26 04:38:15;;;;;;;8.43;2.17;;;;;;;14.51;100.00;100253.19;5073803;28;20437;-72
2021/08/26 04:40:42;;;;;;;3.97;1.93;;;;;;;14.50;100.00;100250.81;5072593;28;20441;-72
2021/08/26 04:43:08;;;;;;;14.93;4.30;;;;;;;14.44;100.00;100246.69;5073356;28;20893;-71
2021/08/26 04:45:35;;;;;;;3.13;1.93;;;;;;;14.50;100.00;100243.44;5069254;28;20445;-71
2021/08/26 04:48:01;;;;;;;2.20;2.00;;;;;;;14.58;100.00;100239.03;5059927;28;20452;-71
2021/08/26 04:50:28;;;;;;;5.07;1.93;;;;;;;14.57;100.00;100235.53;5062426;28;20438;-71
2021/08/26 04:52:56;;;;;;;4.80;2.57;;;;;;;14.62;100.00;100234.50;5053595;28;20482;-70
2021/08/26 04:55:22;;;;;;;4.80;2.70;;;;;;;14.69;100.00;100236.66;5053645;28;20825;-70
2021/08/26 04:57:48;;;;;;;8.73;3.40;;;;;;;14.73;100.00;100241.09;5053455;28;20490;-71
2021/08/26 05:00:15;;;;;;;4.37;1.53;;;;;;;14.71;100.00;100246.13;5058165;28;20450;-70
2021/08/26 05:02:42;;;;;;;6.20;3.13;;;;;;;14.76;100.00;100250.56;5073521;28;20476;-71
2021/08/26 05:05:09;;;;;;;10.00;2.40;;;;;;;14.83;100.00;100248.88;5068686;28;20457;-70
2021/08/26 05:07:36;;;;;;;6.10;1.93;;;;;;;14.81;100.00;100251.13;5073490;28;20816;-71
2021/08/26 05:10:05;;;;;;;4.00;2.77;;;;;;;14.88;100.00;100237.75;5071971;28;20854;-71
2021/08/26 05:12:31;;;;;;;11.43;3.33;;;;;;;14.91;100.00;100238.19;5073203;28;20473;-71
2021/08/26 05:14:58;;;;;;;5.03;1.70;;;;;;;14.91;100.00;100249.09;5073046;28;20457;-71
2021/08/26 05:17:24;;;;;;;7.33;2.50;;;;;;;14.92;100.00;100243.34;5073323;28;20481;-71
2021/08/26 05:19:51;;;;;;;12.73;4.10;;;;;;;14.91;100.00;100249.09;5072493;28;20445;-71
2021/08/26 05:22:17;;;;;;;13.47;3.00;;;;;;;14.96;100.00;100244.22;5072894;28;21009;-70
2021/08/26 05:24:44;;;;;;;5.90;2.37;;;;;;;15.00;100.00;100253.31;5073302;28;20441;-71
2021/08/26 05:27:11;;;;;;;4.40;2.20;;;;;;;14.96;100.00;100263.31;5072926;28;20452;-72
2021/08/26 05:29:38;;;;;;;11.00;2.80;;;;;;;14.98;100.00;100250.16;5073093;28;20441;-73
2021/08/26 05:32:05;;;;;;;2.70;2.00;;;;;;;14.96;100.00;100259.78;5069733;28;20480;-72
2021/08/26 05:34:32;;;;;;;5.03;2.93;;;;;;;14.99;100.00;100267.31;5065483;28;20453;-71
2021/08/26 05:36:58;;;;;;;5.73;2.53;;;;;;;15.02;100.00;100261.19;5071371;28;20485;-78
2021/08/26 05:39:25;;;;;;;27.40;5.03;;;;;;;15.07;100.00;100258.22;5072316;28;20958;-73
2021/08/26 05:41:51;;;;;;;8.40;3.10;;;;;;;15.08;100.00;100260.59;5072975;28;20452;-73
2021/08/26 05:44:19;;;;;;;8.13;3.30;;;;;;;15.07;100.00;100260.97;5073094;28;20453;-72
2021/08/26 05:46:46;;;;;;;6.07;2.87;;;;;;;15.00;100.00;100264.22;5073792;28;20449;-72
2021/08/26 05:49:13;;;;;;;6.07;3.07;;;;;;;15.04;100.00;100269.81;5076210;28;20957;-73
2021/08/26 05:51:40;;;;;;;4.37;2.43;;;;;;;15.09;100.00;100267.66;5076297;28;20943;-73
2021/08/26 05:54:06;;;;;;;3.13;2.13;;;;;;;15.10;100.00;100272.00;5077352;28;20441;-73
2021/08/26 05:56:33;;;;;;;12.43;2.10;;;;;;;15.09;100.00;100266.84;5076917;28;20855;-71
2021/08/26 05:58:59;;;;;;;5.30;1.93;;;;;;;15.11;100.00;100268.13;5076240;28;20449;-74
2021/08/26 06:01:29;;;;;;;7.00;3.50;;;;;;;15.12;100.00;100271.66;5076530;28;20465;-72
2021/08/26 06:03:56;;;;;;;7.90;2.37;;;;;;;15.10;100.00;100274.72;5076474;28;20468;-71
2021/08/26 06:06:23;;;;;;;3.60;2.43;;;;;;;15.14;100.00;100285.75;5056816;28;20438;-71
2021/08/26 06:08:49;;;;;;;14.73;2.30;;;;;;;15.17;100.00;100285.06;5056208;28;20445;-71
2021/08/26 06:11:16;;;;;;;4.20;2.40;;;;;;;15.20;100.00;100289.06;5056192;28;20449;-71
2021/08/26 06:13:43;;;;;;;6.73;2.30;;;;;;;15.25;100.00;100291.56;5056401;28;20489;-71
2021/08/26 06:16:09;;;;;;;13.93;2.73;;;;;;;15.36;100.00;100288.06;5056490;28;20445;-70
2021/08/26 06:18:37;;;;;;;12.63;2.80;;;;;;;15.47;100.00;100293.06;5056639;28;20458;-71
2021/08/26 06:21:03;;;;;;;5.10;3.17;;;;;;;15.42;100.00;100291.34;5055458;28;20938;-70
2021/08/26 06:23:30;;;;;;;6.53;3.17;;;;;;;15.41;100.00;100299.88;5056349;28;20470;-71
2021/08/26 06:25:57;;;;;;;4.13;2.13;;;;;;;15.37;100.00;100289.63;5056404;28;20446;-72
2021/08/26 06:28:23;;;;;;;12.93;2.70;;;;;;;15.35;100.00;100302.81;5056095;28;21022;-71
2021/08/26 06:30:50;;;;;;;7.83;2.83;;;;;;;15.37;100.00;100295.09;5055539;28;20523;-71
2021/08/26 06:33:16;;;;;;;13.23;3.63;;;;;;;15.47;100.00;100306.69;5069564;28;20472;-71
2021/08/26 06:35:44;;;;;;;4.90;2.90;;;;;;;15.52;100.00;100298.28;5076039;28;20962;-72
2021/08/26 06:38:11;;;;;;;13.23;2.50;;;;;;;15.56;100.00;100301.91;5076032;28;20481;-71
2021/08/26 06:40:37;;;;;;;4.97;2.40;;;;;;;15.55;100.00;100297.59;5076271;28;20463;-72
2021/08/26 06:43:04;;;;;;;7.67;1.60;;;;;;;15.54;100.00;100299.53;5075579;28;20472;-73
2021/08/26 06:45:30;;;;;;;2.33;1.57;;;;;;;15.52;100.00;100301.00;5071504;28;20441;-73
2021/08/26 06:47:56;;;;;;;6.10;2.80;;;;;;;15.52;100.00;100303.75;5055380;28;20434;-72
2021/08/26 06:50:23;;;;;;;2.80;1.90;;;;;;;15.53;100.00;100308.84;5055917;28;20454;-72
2021/08/26 06:52:52;;;;;;;14.93;2.60;;;;;;;15.61;100.00;100307.94;5055476;28;20470;-69
2021/08/26 06:55:18;;;;;;;11.87;3.40;;;;;;;15.61;100.00;100313.41;5055562;28;20446;-68
2021/08/26 06:57:45;;;;;;;4.70;3.03;;;;;;;15.67;100.00;100313.19;5055842;28;20486;-69
2021/08/26 07:00:12;;;;;;;10.07;2.93;;;;;;;15.65;100.00;100310.81;5060804;28;20449;-69
2021/08/26 07:02:41;;;;;;;4.43;2.20;;;;;;;15.72;100.00;100305.59;5055702;28;20473;-70
2021/08/26 07:05:08;;;;;;;9.20;3.27;;;;;;;15.67;100.00;100314.03;5057052;28;20443;-71
2021/08/26 07:07:35;;;;;;;5.93;1.83;;;;;;;15.78;100.00;100315.13;5075302;28;20443;-69
2021/08/26 07:10:04;;;;;;;12.07;2.90;;;;;;;15.86;100.00;100319.69;5075636;28;20445;-69
2021/08/26 07:12:31;;;;;;;9.43;2.90;;;;;;;15.88;100.00;100314.66;5074861;28;20485;-68
2021/08/26 07:14:59;;;;;;;7.73;3.50;;;;;;;15.95;100.00;100311.38;5054925;28;20507;-70
2021/08/26 07:17:25;;;;;;;4.50;2.00;;;;;;;16.08;100.00;100306.69;5054984;28;20481;-69
2021/08/26 07:19:52;;;;;;;5.80;2.10;;;;;;;16.18;100.00;100311.66;5055852;28;20446;-69
2021/08/26 07:22:19;;;;;;;3.37;1.80;;;;;;;16.25;100.00;100305.63;5075422;28;20465;-68
2021/08/26 07:24:45;;;;;;;5.03;2.97;;;;;;;16.39;100.00;100311.50;5074376;28;20469;-67
2021/08/26 07:27:13;;;;;;;3.00;1.53;;;;;;;16.45;100.00;100314.78;5075197;28;20445;-66
2021/08/26 07:29:40;;;;;;;2.60;1.57;;;;;;;16.56;100.00;100307.69;5061068;28;20450;-67
2021/08/26 07:32:07;;;;;;;8.33;2.17;;;;;;;16.66;100.00;100318.13;5055049;28;20465;-70
2021/08/26 07:34:33;;;;;;;10.70;2.67;;;;;;;16.78;100.00;100314.56;5063289;28;20454;-71
2021/08/26 07:37:00;;;;;;;2.50;1.37;;;;;;;16.85;96.82;100315.53;5073535;28;20836;-72
2021/08/26 07:39:26;;;;;;;3.40;2.90;;;;;;;16.77;96.56;100321.16;5073444;28;20479;-72
2021/08/26 07:41:53;;;;;;;5.90;1.93;;;;;;;16.62;96.57;100319.97;5075066;28;20452;-72
2021/08/26 07:44:21;;;;;;;9.53;1.87;;;;;;;16.57;97.95;100317.47;5073468;28;20446;-71
2021/08/26 07:46:48;;;;;;;10.67;1.27;;;;;;;16.59;98.11;100326.13;5074936;28;20449;-72
2021/08/26 07:49:15;;;;;;;2.97;1.40;;;;;;;16.57;97.99;100323.75;5075095;28;20491;-72
2021/08/26 07:51:41;;;;;;;1.63;1.50;;;;;;;16.61;97.23;100318.38;5074798;28;20441;-72
2021/08/26 07:54:07;;;;;;;2.20;1.80;;;;;;;16.60;96.56;100314.84;5073993;28;20491;-70
2021/08/26 07:56:35;;;;;;;5.87;2.17;;;;;;;16.69;95.51;100311.97;5070330;28;20462;-71
2021/08/26 07:59:01;;;;;;;8.63;2.10;;;;;;;16.80;95.35;100313.06;5054495;28;20457;-71
2021/08/26 08:01:29;;;;;;;10.03;2.17;;;;;;;16.74;93.50;100305.47;5054637;28;20438;-70
2021/08/26 08:03:56;;;;;;;7.37;0.90;;;;;;;16.80;91.73;100310.31;5053769;28;20481;-73
2021/08/26 08:06:23;;;;;;;2.00;1.23;;;;;;;16.96;91.50;100312.31;5054553;28;20455;-72
2021/08/26 08:08:50;;;;;;;2.33;1.70;;;;;;;17.12;91.00;100307.63;5054683;28;20496;-71
2021/08/26 08:11:17;;;;;;;4.70;1.47;;;;;;;17.23;89.87;100302.44;5066658;28;20499;-78
2021/08/26 08:13:43;;;;;;;3.57;1.90;;;;;;;17.39;90.82;100304.03;5073222;28;20496;-71
2021/08/26 08:16:11;;;;;;;3.70;1.13;;;;;;;17.53;84.71;100308.25;5074281;28;20449;-73
2021/08/26 08:18:39;;;;;;;1.93;1.30;;;;;;;17.67;85.18;100303.13;5066897;28;20481;-72
2021/08/26 08:21:05;;;;;;;2.83;0.83;;;;;;;17.67;85.05;100300.41;5068681;28;20456;-72
2021/08/26 08:23:32;;;;;;;1.77;0.83;;;;;;;17.57;84.58;100295.44;5053499;28;20474;-72
2021/08/26 08:25:59;;;;;;;3.87;1.97;;;;;;;17.55;84.60;100292.28;5053336;28;20461;-73
2021/08/26 08:28:25;;;;;;;7.60;1.83;;;;;;;17.57;85.56;100303.66;5054169;28;20814;-74
2021/08/26 08:30:52;;;;;;;1.50;0.83;;;;;;;17.64;85.69;100296.41;5054316;28;20438;-72
2021/08/26 08:33:18;;;;;;;3.33;1.97;;;;;;;17.79;86.26;100300.28;5053665;28;20840;-74
2021/08/26 08:35:46;;;;;;;4.07;1.67;;;;;;;17.99;83.45;100298.41;5053048;28;20939;-75
2021/08/26 08:38:13;;;;;;;6.43;1.27;;;;;;;18.03;81.13;100296.53;5053651;28;21007;-69
2021/08/26 08:40:40;;;;;;;3.03;1.70;;;;;;;18.07;82.22;100293.88;5053978;28;20453;-68
2021/08/26 08:43:06;;;;;;;4.13;1.00;;;;;;;17.98;83.21;100296.03;5053091;28;20454;-72
2021/08/26 08:45:33;;;;;;;1.07;0.70;;;;;;;18.00;83.95;100299.19;5053794;28;20461;-72
2021/08/26 08:48:00;;;;;;;2.00;0.73;;;;;;;17.96;80.01;100303.81;5064967;28;20461;-69
2021/08/26 08:50:27;;;;;;;0.80;0.63;;;;;;;18.09;78.30;100299.78;5073668;28;20820;-69
2021/08/26 08:52:56;;;;;;;3.40;1.03;;;;;;;18.09;78.79;100308.00;5072705;28;20985;-72
2021/08/26 08:55:22;;;;;;;0.87;0.87;;;;;;;18.04;79.10;100300.06;5073044;28;20452;-70
2021/08/26 08:57:48;;;;;;;1.37;1.00;;;;;;;18.00;77.68;100304.69;5060772;28;20493;-71
2021/08/26 09:00:18;;;;;;;1.07;0.70;;;;;;;17.97;77.12;100311.66;5053374;28;20443;-71
2021/08/26 09:02:44;;;;;;;1.53;0.97;;;;;;;18.04;79.17;100308.28;5052843;28;20473;-72
2021/08/26 09:05:11;;;;;;;1.97;0.60;;;;;;;18.13;78.82;100297.91;5052969;28;20442;-73
2021/08/26 09:07:38;;;;;;;4.67;0.90;;;;;;;18.26;79.94;100310.34;5052972;28;20967;-71
2021/08/26 09:10:08;;;;;;;0.60;0.50;;;;;;;18.19;76.37;100312.13;5053272;28;20470;-72
2021/08/26 09:12:46;;;;;;;1.63;0.67;;;;;;;17.90;77.26;100314.25;5052367;28;20987;-72
2021/08/26 09:15:15;;;;;;;0.90;0.60;;;;;;;17.92;77.86;100306.47;5052682;28;20453;-70
2021/08/26 09:17:44;;;;;;;0.70;0.70;;;;;;;17.81;76.59;100299.97;5052930;28;20486;-73
2021/08/26 09:20:14;;;;;;;0.57;0.47;;;;;;;17.85;78.28;100304.38;5053038;28;20955;-73
2021/08/26 09:22:42;;;;;;;2.07;1.00;;;;;;;17.74;78.22;100306.06;5052566;28;20458;-73
2021/08/26 09:25:13;;;;;;;1.80;0.60;;;;;;;17.65;78.13;100313.63;5052834;28;20447;-72
2021/08/26 09:27:44;;;;;;;0.60;0.40;;;;;;;17.62;78.29;100300.66;5053178;28;20437;-73
2021/08/26 09:30:13;;;;;;;0.70;0.53;;;;;;;17.48;82.07;100314.00;5053111;28;20530;-74
2021/08/26 09:32:42;;;;;;;1.63;0.60;;;;;;;17.48;77.48;100314.00;5052601;28;20462;-74
2021/08/26 09:35:15;;;;;;;1.10;0.57;;;;;;;17.67;78.88;100305.88;5053187;28;20465;-73
2021/08/26 09:37:43;;;;;;;0.77;0.37;;;;;;;17.75;78.55;100307.66;5052960;28;20481;-74
2021/08/26 09:40:15;;;;;;;0.63;0.40;;;;;;;17.72;78.70;100305.59;5053147;28;20441;-73
2021/08/26 09:42:42;;;;;;;1.40;0.63;;;;;;;17.62;78.47;100312.41;5053063;28;20686;-74
2021/08/26 09:45:18;;;;;;;3.07;0.57;;;;;;;17.67;79.31;100311.34;5052757;28;20446;-71
2021/08/26 09:48:06;;;;;;;0.60;0.50;;;;;;;17.68;78.36;100314.88;5052645;28;20947;-72
2021/08/26 09:50:38;;;;;;;1.80;0.50;;;;;;;17.79;77.51;100304.97;5046911;28;20453;-73
2021/08/26 09:53:05;;;;;;;2.97;0.60;;;;;;;17.99;78.89;100306.63;5052715;28;20465;-73
2021/08/26 09:55:58;;;;;;;0.60;0.50;;;;;;;18.09;79.59;100310.75;5052963;28;20445;-73
2021/08/26 09:58:26;;;;;;;1.27;0.60;;;;;;;18.01;78.34;100309.78;5053017;28;20476;-72
2021/08/26 10:01:05;;;;;;;1.43;0.63;;;;;;;17.83;79.80;100316.81;5053305;28;20446;-73
2021/08/26 10:03:33;;;;;;;1.83;0.83;;;;;;;17.44;84.98;100330.34;5052338;28;20478;-73
2021/08/26 10:05:59;;;;;;;0.60;0.47;;;;;;;16.95;88.36;100338.84;5052474;28;20951;-72
2021/08/26 10:08:26;;;;;;;0.60;0.40;;;;;;;16.33;90.59;100332.00;5052604;28;20936;-71
2021/08/26 10:10:54;;;;;;;0.60;0.50;;;;;;;15.98;92.32;100334.47;5052749;28;20449;-73
2021/08/26 10:13:22;;;;;;;0.70;0.57;;;;;;;15.51;95.75;100334.91;5052906;28;20489;-70
2021/08/26 10:15:49;;;;;;;0.93;0.50;;;;;;;15.24;97.66;100323.50;5052619;28;20446;-71
2021/08/26 10:18:18;;;;;;;2.40;1.03;;;;;;;15.07;99.07;100332.69;5052671;28;20486;-71
2021/08/26 10:20:45;;;;;;;1.80;0.70;;;;;;;14.91;100.00;100341.81;5052796;28;20456;-70
2021/08/26 10:23:13;;;;;;;0.60;0.40;;;;;;;14.81;100.00;100349.28;5051953;28;20520;-73
2021/08/26 10:25:42;;;;;;;1.40;0.77;;;;;;;14.58;100.00;100345.34;5052138;28;20931;-70
2021/08/26 10:28:10;;;;;;;0.80;0.73;;;;;;;14.58;100.00;100346.13;5052401;28;20438;-71
2021/08/26 10:30:40;;;;;;;1.10;0.57;;;;;;;14.58;100.00;100335.22;5052377;28;20943;-71
2021/08/26 10:33:09;;;;;;;0.70;0.47;;;;;;;14.67;100.00;100331.63;5051903;28;20462;-72
2021/08/26 10:35:57;;;;;;;1.20;0.57;;;;;;;14.76;100.00;100321.44;5055842;28;20496;-71
2021/08/26 10:38:27;;;;;;;2.20;0.60;;;;;;;14.88;100.00;100329.69;5056303;28;20477;-71
2021/08/26 10:40:54;;;;;;;5.60;0.97;;;;;;;15.02;100.00;100315.75;5055920;28;20899;-70
2021/08/26 10:43:34;;;;;;;0.50;0.40;;;;;;;15.26;100.00;100314.97;5054971;28;20955;-71
2021/08/26 10:46:03;;;;;;;0.77;0.43;;;;;;;15.43;100.00;100314.75;5055829;28;20844;-71
2021/08/26 10:48:30;;;;;;;0.97;0.50;;;;;;;15.50;100.00;100306.81;5056051;28;20446;-70
2021/08/26 10:51:14;;;;;;;0.50;0.40;;;;;;;15.65;100.00;100313.56;5056300;28;20457;-72
2021/08/26 10:53:43;;;;;;;2.63;0.87;;;;;;;15.83;100.00;100314.91;5055074;28;20826;-72
2021/08/26 10:56:35;;;;;;;0.70;0.50;;;;;;;16.09;98.56;100320.00;5055996;28;20614;-71
2021/08/26 10:59:03;;;;;;;0.60;0.40;;;;;;;16.29;97.24;100329.19;5051925;28;20489;-70
2021/08/26 11:01:39;;;;;;;1.40;0.50;;;;;;;16.69;98.33;100327.56;5055586;28;20966;-71
2021/08/26 11:04:08;;;;;;;2.30;0.50;;;;;;;17.02;97.17;100322.63;5054954;28;20859;-71
2021/08/26 11:06:45;;;;;;;1.13;0.60;;;;;;;17.26;95.73;100324.41;5055636;28;20453;-70
2021/08/26 11:09:34;;;;;;;0.73;0.43;;;;;;;17.55;95.79;100320.47;5055652;28;20442;-71
2021/08/26 11:12:21;;;;;;;0.60;0.33;;;;;;;17.92;94.93;100331.13;5055416;28;20485;-71
2021/08/26 11:14:49;;;;;;;0.50;0.47;;;;;;;18.15;94.39;100328.53;5055029;28;20476;-70
2021/08/26 11:17:31;;;;;;;1.50;0.60;;;;;;;18.07;89.24;100337.75;5055619;28;20454;-68
2021/08/26 11:19:58;;;;;;;0.50;0.40;;;;;;;18.01;87.76;100339.16;5055257;28;20474;-69
2021/08/26 11:22:25;;;;;;;0.60;0.40;;;;;;;17.83;88.24;100342.28;5055320;28;20520;-72
2021/08/26 11:24:59;;;;;;;1.50;0.47;;;;;;;17.46;89.15;100343.69;5054665;28;20439;-71